Time;durP1;ratioP1;P1;durP2;ratioP2;P2;SDS_P1;SDS_P2;PMS_P1;PMS_P2;Temp;Humidity;BMP_temperature;BMP_pressure;BME280_temperature;BME280_humidity;BME280_pressure;Samples;Min_cycle;Max_cycle;Signal;HPM_P1;HPM_P2
2021/07/05 00:01:51;;;;;;;;;4.25;2.50;;;;;-146.80;100.00;64830.25;5077789;28;45534;-58
2021/07/05 00:04:16;;;;;;;;;4.00;4.00;;;;;-146.80;100.00;64830.25;5077092;28;45304;-60
2021/07/05 00:06:41;;;;;;;;;3.25;3.00;;;;;-146.80;100.00;64830.25;5077249;28;45239;-62
2021/07/05 00:09:07;;;;;;;;;3.25;3.00;;;;;-146.80;100.00;64830.25;5077323;28;45974;-59
2021/07/05 00:11:32;;;;;;;;;5.00;3.00;;;;;-146.80;100.00;64830.25;5077382;28;45404;-60
2021/07/05 00:13:58;;;;;;;;;6.00;3.25;;;;;-146.80;100.00;64830.25;5077036;27;45381;-60
2021/07/05 00:16:23;;;;;;;;;6.50;4.00;;;;;-146.80;100.00;64830.25;5076931;28;45443;-59
2021/07/05 00:18:49;;;;;;;;;7.00;5.25;;;;;-146.80;100.00;64830.25;5077356;27;45451;-59
2021/07/05 00:21:14;;;;;;;;;2.00;2.00;;;;;-146.80;100.00;64830.25;5077262;28;45566;-57
2021/07/05 00:23:40;;;;;;;;;3.75;3.00;;;;;-146.80;100.00;64830.25;5076799;28;45573;-60
2021/07/05 00:26:05;;;;;;;;;3.50;3.00;;;;;-146.80;100.00;64830.25;5076806;28;45265;-60
2021/07/05 00:28:31;;;;;;;;;4.25;2.75;;;;;-146.80;100.00;64830.25;5076888;28;45263;-60
2021/07/05 00:30:56;;;;;;;;;3.50;3.50;;;;;-146.80;100.00;64830.25;5077107;28;45548;-60
2021/07/05 00:33:21;;;;;;;;;4.50;3.00;;;;;-146.80;100.00;64830.25;5075656;28;45747;-60
2021/07/05 00:35:47;;;;;;;;;5.00;4.00;;;;;-146.80;100.00;64830.25;5076814;27;45437;-58
2021/07/05 00:38:13;;;;;;;;;2.00;2.00;;;;;-146.80;100.00;64830.25;5076998;28;45416;-58
2021/07/05 00:40:38;;;;;;;;;4.50;3.75;;;;;-146.80;100.00;64830.25;5076941;28;45333;-60
2021/07/05 00:43:04;;;;;;;;;4.00;4.00;;;;;-146.80;100.00;64830.25;5076631;27;46194;-58
2021/07/05 00:45:31;;;;;;;;;3.00;3.00;;;;;-146.80;100.00;64830.25;5076396;28;45258;-59
2021/07/05 00:47:57;;;;;;;;;3.00;3.00;;;;;-146.80;100.00;64830.25;5076544;28;45507;-58
2021/07/05 00:50:25;;;;;;;;;5.00;3.75;;;;;-146.80;100.00;64830.25;5076752;28;45259;-60
2021/07/05 00:52:53;;;;;;;;;3.25;3.25;;;;;-146.80;100.00;64830.25;5076486;28;46266;-56
2021/07/05 00:55:19;;;;;;;;;4.50;2.00;;;;;-146.80;100.00;64830.25;5076345;28;45390;-58
2021/07/05 00:57:44;;;;;;;;;3.00;3.00;;;;;-146.80;100.00;64830.25;5076530;27;45274;-60
2021/07/05 01:00:13;;;;;;;;;4.00;2.50;;;;;-146.80;100.00;64830.25;5076763;28;45343;-60
2021/07/05 01:02:39;;;;;;;;;4.25;3.00;;;;;-146.80;100.00;64830.25;5074900;28;48844;-59
2021/07/05 01:05:06;;;;;;;;;2.50;2.00;;;;;-146.80;100.00;64830.25;5076124;28;45352;-58
2021/07/05 01:07:31;;;;;;;;;4.00;3.00;;;;;-146.80;100.00;64830.25;5074905;28;45432;-59
2021/07/05 01:09:56;;;;;;;;;4.00;3.00;;;;;-146.80;100.00;64830.25;5076775;27;45599;-60
2021/07/05 01:12:22;;;;;;;;;3.50;3.50;;;;;-146.80;100.00;64830.25;5076618;28;45363;-57
2021/07/05 01:14:47;;;;;;;;;3.00;3.00;;;;;-146.80;100.00;64830.25;5074917;28;45422;-60
2021/07/05 01:17:13;;;;;;;;;2.25;2.00;;;;;-146.80;100.00;64830.25;5076522;27;45496;-59
2021/07/05 01:19:50;;;;;;;;;4.00;2.50;;;;;-146.80;100.00;64830.25;5075295;28;45297;-61
2021/07/05 01:22:17;;;;;;;;;4.25;2.75;;;;;-146.80;100.00;64830.25;5076038;28;46672;-60
2021/07/05 01:24:44;;;;;;;;;2.00;2.00;;;;;-146.80;100.00;64830.25;5075993;28;45303;-60
2021/07/05 01:27:10;;;;;;;;;3.50;2.75;;;;;-146.80;100.00;64830.25;5076228;28;45404;-60
2021/07/05 01:29:36;;;;;;;;;4.50;3.25;;;;;-146.80;100.00;64830.25;5074864;28;45539;-56
2021/07/05 01:32:02;;;;;;;;;3.00;2.00;;;;;-146.80;100.00;64830.25;5074662;28;48100;-60
2021/07/05 01:34:28;;;;;;;;;5.00;3.25;;;;;-146.80;100.00;64830.25;5075889;28;45489;-58
2021/07/05 01:36:53;;;;;;;;;4.00;3.50;;;;;-146.80;100.00;64830.25;5076223;28;45337;-56
2021/07/05 01:39:20;;;;;;;;;3.75;3.00;;;;;-146.80;100.00;64830.25;5074800;28;45569;-57
2021/07/05 01:41:46;;;;;;;;;3.25;2.25;;;;;-146.80;100.00;64830.25;5075854;28;45587;-61
2021/07/05 01:44:12;;;;;;;;;3.00;3.00;;;;;-146.80;100.00;64830.25;5074478;28;45536;-60
2021/07/05 01:46:38;;;;;;;;;4.00;2.00;;;;;-146.80;100.00;64830.25;5075736;28;45331;-58
2021/07/05 01:49:04;;;;;;;;;3.25;2.50;;;;;-146.80;100.00;64830.25;5076065;28;45449;-60
2021/07/05 01:51:29;;;;;;;;;3.00;3.00;;;;;-146.80;100.00;64830.25;5075472;28;46302;-60
2021/07/05 01:53:54;;;;;;;;;3.25;2.00;;;;;-146.80;100.00;64830.25;5076082;28;45309;-60
2021/07/05 01:56:20;;;;;;;;;1.25;1.25;;;;;-146.80;100.00;64830.25;5074468;28;45410;-60
2021/07/05 01:58:45;;;;;;;;;2.25;2.25;;;;;-146.80;100.00;64830.25;5076072;28;45376;-59
2021/07/05 02:01:11;;;;;;;;;3.00;1.00;;;;;-146.80;100.00;64830.25;5075492;28;46509;-60
2021/07/05 02:03:36;;;;;;;;;3.50;2.75;;;;;-146.80;100.00;64830.25;5078923;28;45390;-61
2021/07/05 02:06:02;;;;;;;;;2.00;2.00;;;;;-146.80;100.00;64830.25;5079208;27;45297;-59
2021/07/05 02:08:28;;;;;;;;;5.50;2.00;;;;;-146.80;100.00;64830.25;5112504;27;45623;-58
2021/07/05 02:10:53;;;;;;;;;3.00;2.00;;;;;-146.80;100.00;64830.25;5079380;28;46650;-58
2021/07/05 02:13:25;;;;;;;;;2.00;2.00;;;;;-146.80;100.00;64830.25;5079127;28;45342;-57
2021/07/05 02:15:54;;;;;;;;;2.00;2.00;;;;;-146.80;100.00;64830.25;5079373;28;45275;-60
2021/07/05 02:18:20;;;;;;;;;3.75;3.00;;;;;-146.80;100.00;64830.25;5078981;27;45576;-58
2021/07/05 02:20:45;;;;;;;;;2.25;2.00;;;;;-146.80;100.00;64830.25;5078763;28;46876;-58
2021/07/05 02:23:14;;;;;;;;;2.75;2.00;;;;;-146.80;100.00;64830.25;5078941;28;45193;-59
2021/07/05 02:25:41;;;;;;;;;3.75;3.75;;;;;-146.80;100.00;64830.25;5079095;27;45341;-59
2021/07/05 02:28:21;;;;;;;;;3.25;2.00;;;;;-146.80;100.00;64830.25;5079022;28;45507;-60
2021/07/05 02:30:48;;;;;;;;;3.00;3.00;;;;;-146.80;100.00;64830.25;5078509;28;45379;-60
2021/07/05 02:33:16;;;;;;;;;5.00;3.00;;;;;-146.80;100.00;64830.25;5078494;28;45343;-60
2021/07/05 02:35:41;;;;;;;;;3.50;1.00;;;;;-146.80;100.00;64830.25;5078834;28;45349;-60
2021/07/05 02:38:09;;;;;;;;;5.50;4.00;;;;;-146.80;100.00;64830.25;5078725;27;45362;-59
2021/07/05 02:40:38;;;;;;;;;3.25;2.75;;;;;-146.80;100.00;64830.25;5077481;28;47177;-60
2021/07/05 02:43:04;;;;;;;;;4.75;3.00;;;;;-146.80;100.00;64830.25;5078374;28;45353;-59
2021/07/05 02:45:33;;;;;;;;;3.25;2.75;;;;;-146.80;100.00;64830.25;5077155;28;45354;-59
2021/07/05 02:48:09;;;;;;;;;2.00;2.00;;;;;-146.80;100.00;64830.25;5079106;28;45473;-59
2021/07/05 02:50:35;;;;;;;;;2.25;2.25;;;;;-146.80;100.00;64830.25;5078414;28;45902;-59
2021/07/05 02:53:02;;;;;;;;;7.00;6.50;;;;;-146.80;100.00;64830.25;5078424;28;45260;-59
2021/07/05 02:55:28;;;;;;;;;3.25;3.25;;;;;-146.80;100.00;64830.25;5078789;28;45386;-59
2021/07/05 02:57:54;;;;;;;;;3.00;3.00;;;;;-146.80;100.00;64830.25;5078490;28;45284;-61
2021/07/05 03:00:25;;;;;;;;;3.25;3.00;;;;;-146.80;100.00;64830.25;5078237;28;45359;-57
2021/07/05 03:02:50;;;;;;;;;5.25;4.00;;;;;-146.80;100.00;64830.25;5078355;28;45253;-56
2021/07/05 03:05:17;;;;;;;;;4.75;4.75;;;;;-146.80;100.00;64830.25;5078384;28;45308;-58
2021/07/05 03:07:44;;;;;;;;;3.00;3.00;;;;;-146.80;100.00;64830.25;5077237;28;45576;-58
2021/07/05 03:10:13;;;;;;;;;3.00;3.00;;;;;-146.80;100.00;64830.25;5077882;28;46470;-58
2021/07/05 03:12:39;;;;;;;;;3.00;3.00;;;;;-146.80;100.00;64830.25;5077590;27;45250;-60
2021/07/05 03:15:08;;;;;;;;;2.25;2.25;;;;;-146.80;100.00;64830.25;5077983;28;45204;-59
2021/07/05 03:17:34;;;;;;;;;5.00;3.00;;;;;-146.80;100.00;64830.25;5078280;28;45575;-59
2021/07/05 03:20:00;;;;;;;;;2.00;2.00;;;;;-146.80;100.00;64830.25;5078022;27;45644;-59
2021/07/05 03:22:25;;;;;;;;;3.25;2.00;;;;;-146.80;100.00;64830.25;5077901;28;45309;-58
2021/07/05 03:24:51;;;;;;;;;3.00;3.00;;;;;-146.80;100.00;64830.25;5078154;28;45451;-58
2021/07/05 03:27:16;;;;;;;;;6.00;2.25;;;;;-146.80;100.00;64830.25;5078103;28;45233;-58
2021/07/05 03:29:42;;;;;;;;;6.00;3.25;;;;;-146.80;100.00;64830.25;5077727;28;46815;-59
2021/07/05 03:32:08;;;;;;;;;2.00;2.00;;;;;-146.80;100.00;64830.25;5078044;28;45892;-59
2021/07/05 03:34:34;;;;;;;;;3.75;3.75;;;;;-146.80;100.00;64830.25;5078054;28;45344;-58
2021/07/05 03:37:00;;;;;;;;;5.50;3.00;;;;;-146.80;100.00;64830.25;5078213;28;45598;-60
2021/07/05 03:39:26;;;;;;;;;6.50;5.00;;;;;-146.80;100.00;64830.25;5077344;28;46100;-60
2021/07/05 03:41:52;;;;;;;;;8.50;5.00;;;;;-146.80;100.00;64830.25;5076299;28;45404;-60
2021/07/05 03:44:18;;;;;;;;;4.00;4.00;;;;;-146.80;100.00;64830.25;5077775;28;45355;-61
2021/07/05 03:46:44;;;;;;;;;7.00;5.50;;;;;-146.80;100.00;64830.25;5077784;28;45345;-56
2021/07/05 03:49:09;;;;;;;;;5.00;4.00;;;;;-146.80;100.00;64830.25;5077554;27;45504;-61
2021/07/05 03:51:35;;;;;;;;;6.50;4.00;;;;;-146.80;100.00;64830.25;5077477;28;45396;-60
2021/07/05 03:54:01;;;;;;;;;5.00;4.25;;;;;-146.80;100.00;64830.25;5077956;27;45389;-59
2021/07/05 03:56:26;;;;;;;;;3.75;3.50;;;;;-146.80;100.00;64830.25;5077560;28;45391;-58
2021/07/05 03:58:52;;;;;;;;;4.25;4.25;;;;;-146.80;100.00;64830.25;5077278;28;46488;-59
2021/07/05 04:01:17;;;;;;;;;6.50;4.00;;;;;-146.80;100.00;64830.25;5077423;27;45465;-60
2021/07/05 04:03:43;;;;;;;;;3.75;3.00;;;;;-146.80;100.00;64830.25;5076205;28;45381;-61
2021/07/05 04:06:08;;;;;;;;;5.00;3.50;;;;;-146.80;100.00;64830.25;5077555;28;45452;-59
2021/07/05 04:08:35;;;;;;;;;4.50;4.00;;;;;-146.80;100.00;64830.25;5077339;27;46099;-57
2021/07/05 04:11:03;;;;;;;;;7.25;6.00;;;;;-146.80;100.00;64830.25;5077244;28;45172;-63
2021/07/05 04:13:29;;;;;;;;;2.00;2.00;;;;;-146.80;100.00;64830.25;5077219;27;45227;-58
2021/07/05 04:15:55;;;;;;;;;3.75;3.00;;;;;-146.80;100.00;64830.25;5075956;28;45366;-60
2021/07/05 04:18:21;;;;;;;;;3.50;3.00;;;;;-146.80;100.00;64830.25;5076835;28;45571;-62
2021/07/05 04:20:47;;;;;;;;;3.25;2.00;;;;;-146.80;100.00;64830.25;5076888;28;45483;-61
2021/07/05 04:23:13;;;;;;;;;4.25;3.00;;;;;-146.80;100.00;64830.25;5077123;27;45393;-62
2021/07/05 04:25:39;;;;;;;;;3.00;3.00;;;;;-146.80;100.00;64830.25;5076143;28;45397;-59
2021/07/05 04:28:05;;;;;;;;;4.50;3.25;;;;;-146.80;100.00;64830.25;5075761;28;45466;-58
2021/07/05 04:30:31;;;;;;;;;4.00;4.00;;;;;-146.80;100.00;64830.25;5076993;27;45400;-62
2021/07/05 04:32:58;;;;;;;;;4.00;4.00;;;;;-146.80;100.00;64830.25;5077093;27;45319;-54
2021/07/05 04:35:24;;;;;;;;;1.25;1.25;;;;;-146.80;100.00;64830.25;5076901;28;45307;-54
2021/07/05 04:37:51;;;;;;;;;2.00;2.00;;;;;-146.80;100.00;64830.25;5076833;28;45383;-58
2021/07/05 04:40:19;;;;;;;;;4.50;4.00;;;;;-146.80;100.00;64830.25;5076461;28;45353;-59
2021/07/05 04:42:46;;;;;;;;;4.00;4.00;;;;;-146.80;100.00;64830.25;5076643;28;45438;-60
2021/07/05 04:45:13;;;;;;;;;2.25;2.25;;;;;-146.80;100.00;64830.25;5076717;28;45339;-57
2021/07/05 04:47:39;;;;;;;;;9.50;5.50;;;;;-146.80;100.00;64830.25;5076323;27;46643;-58
2021/07/05 04:50:06;;;;;;;;;4.00;4.00;;;;;-146.80;100.00;64830.25;5076693;27;45444;-61
2021/07/05 04:52:32;;;;;;;;;4.25;4.25;;;;;-146.80;100.00;64830.25;5075481;28;45398;-60
2021/07/05 04:54:57;;;;;;;;;6.75;6.75;;;;;-146.80;100.00;64830.25;5075359;28;45612;-59
2021/07/05 04:57:23;;;;;;;;;7.00;7.00;;;;;-146.80;100.00;64830.25;5076287;28;45437;-58
2021/07/05 04:59:48;;;;;;;;;3.00;3.00;;;;;-146.80;100.00;64830.25;5058136;28;45476;-58
2021/07/05 05:02:13;;;;;;;;;6.00;6.00;;;;;-146.80;100.00;64830.25;5076478;28;45334;-62
2021/07/05 05:04:39;;;;;;;;;8.00;8.00;;;;;-146.80;100.00;64830.25;5076467;28;45556;-63
2021/07/05 05:07:04;;;;;;;;;2.75;2.75;;;;;-146.80;100.00;64830.25;5076578;27;45407;-63
2021/07/05 05:09:30;;;;;;;;;3.25;2.25;;;;;-146.80;100.00;64830.25;5076475;27;45314;-61
2021/07/05 05:11:55;;;;;;;;;3.00;3.00;;;;;-146.80;100.00;64830.25;5076525;28;45315;-62
2021/07/05 05:14:21;;;;;;;;;4.75;4.00;;;;;-146.80;100.00;64830.25;5075193;28;45575;-62
2021/07/05 05:16:48;;;;;;;;;6.75;5.75;;;;;-146.80;100.00;64830.25;5074880;28;48571;-61
2021/07/05 05:19:14;;;;;;;;;6.00;5.25;;;;;-146.80;100.00;64830.25;5076266;28;45329;-62
2021/07/05 05:21:40;;;;;;;;;7.00;7.00;;;;;-146.80;100.00;64830.25;5076287;28;45333;-63
2021/07/05 05:24:05;;;;;;;;;5.25;5.25;;;;;-146.80;100.00;64830.25;5076810;27;45669;-63
2021/07/05 05:26:30;;;;;;;;;8.25;6.00;;;;;-146.80;100.00;64830.25;5076123;27;46790;-59
2021/07/05 05:28:56;;;;;;;;;6.50;6.00;;;;;-146.80;100.00;64830.25;5076129;27;45350;-59
2021/07/05 05:31:22;;;;;;;;;8.75;8.00;;;;;-146.80;100.00;64830.25;5074852;28;45345;-57
2021/07/05 05:33:47;;;;;;;;;3.50;3.25;;;;;-146.80;100.00;64830.25;5074641;28;45360;-57
2021/07/05 05:36:13;;;;;;;;;3.00;3.00;;;;;-146.80;100.00;64830.25;5074331;28;46781;-60
2021/07/05 05:38:40;;;;;;;;;7.25;4.75;;;;;-146.80;100.00;64830.25;5075949;27;45407;-59
2021/07/05 05:41:06;;;;;;;;;4.00;4.00;;;;;-146.80;100.00;64830.25;5074784;28;45345;-62
2021/07/05 05:43:31;;;;;;;;;2.50;2.50;;;;;-146.80;100.00;64830.25;5074678;28;45216;-62
2021/07/05 05:46:01;;;;;;;;;3.25;2.25;;;;;-146.80;100.00;64830.25;5075145;28;46172;-62
2021/07/05 05:48:28;;;;;;;;;2.00;2.00;;;;;-146.80;100.00;64830.25;5075495;27;45478;-60
2021/07/05 05:50:53;;;;;;;;;2.75;2.00;;;;;-146.80;100.00;64830.25;5075772;27;45296;-61
2021/07/05 05:53:19;;;;;;;;;4.75;2.00;;;;;-146.80;100.00;64830.25;5074628;28;45610;-60
2021/07/05 05:55:46;;;;;;;;;2.00;2.00;;;;;-146.80;100.00;64830.25;5075524;28;46157;-63
2021/07/05 05:58:13;;;;;;;;;3.00;3.00;;;;;-146.80;100.00;64830.25;5075912;27;45255;-62
2021/07/05 06:00:38;;;;;;;;;3.50;3.50;;;;;-146.80;100.00;64830.25;5057894;28;45310;-63
2021/07/05 06:03:04;;;;;;;;;5.00;5.00;;;;;-146.80;100.00;64830.25;5075699;28;45461;-62
2021/07/05 06:05:29;;;;;;;;;3.00;3.00;;;;;-146.80;100.00;64830.25;5075361;28;46341;-62
2021/07/05 06:07:55;;;;;;;;;3.75;3.75;;;;;-146.80;100.00;64830.25;5075430;28;45373;-62
2021/07/05 06:10:23;;;;;;;;;6.75;6.75;;;;;-146.80;100.00;64830.25;5075717;27;45330;-62
2021/07/05 06:12:49;;;;;;;;;12.00;12.00;;;;;-146.80;100.00;64830.25;5074351;28;45536;-58
2021/07/05 06:15:17;;;;;;;;;4.00;2.25;;;;;-146.80;100.00;64830.25;5073715;28;47250;-59
2021/07/05 06:17:43;;;;;;;;;3.00;3.00;;;;;-146.80;100.00;64830.25;5073890;28;45357;-65
2021/07/05 06:20:10;;;;;;;;;4.50;2.25;;;;;-146.80;100.00;64830.25;5074316;27;45490;-59
2021/07/05 06:22:41;;;;;;;;;2.50;2.50;;;;;-146.80;100.00;64830.25;5075641;27;45354;-63
2021/07/05 06:25:07;;;;;;;;;3.25;3.25;;;;;-146.80;100.00;64830.25;5075263;28;46258;-62
2021/07/05 06:27:33;;;;;;;;;3.00;3.00;;;;;-146.80;100.00;64830.25;5075062;28;45344;-62
2021/07/05 06:29:58;;;;;;;;;4.25;4.25;;;;;-146.80;100.00;64830.25;5075495;28;45421;-64
2021/07/05 06:32:32;;;;;;;;;2.00;2.00;;;;;-146.80;100.00;64830.25;5074326;28;45599;-65
2021/07/05 06:34:58;;;;;;;;;7.75;4.75;;;;;-146.80;100.00;64830.25;5075273;27;46455;-63
2021/07/05 06:37:23;;;;;;;;;7.75;3.00;;;;;-146.80;100.00;64830.25;5075083;28;45347;-61
2021/07/05 06:39:49;;;;;;;;;6.50;6.50;;;;;-146.80;100.00;64830.25;5075206;27;45465;-62
2021/07/05 06:42:15;;;;;;;;;3.50;3.50;;;;;-146.80;100.00;64830.25;5073983;28;45641;-63
2021/07/05 06:44:41;;;;;;;;;6.00;5.00;;;;;-146.80;100.00;64830.25;5074982;28;46501;-63
2021/07/05 06:47:06;;;;;;;;;2.00;2.00;;;;;-146.80;100.00;64830.25;5074725;28;45386;-60
2021/07/05 06:49:31;;;;;;;;;4.50;3.00;;;;;-146.80;100.00;64830.25;5078119;28;45819;-58
2021/07/05 06:51:57;;;;;;;;;4.00;3.00;;;;;-146.80;100.00;64830.25;5078438;28;45497;-62
2021/07/05 06:54:23;;;;;;;;;3.00;3.00;;;;;-146.80;100.00;64830.25;5078170;28;45440;-61
2021/07/05 06:56:48;;;;;;;;;58.50;43.75;;;;;-146.80;100.00;64830.25;5076335;28;45407;-62
2021/07/05 06:59:14;;;;;;;;;8.50;5.75;;;;;-146.80;100.00;64830.25;5078296;28;45318;-64
2021/07/05 07:01:39;;;;;;;;;3.25;3.25;;;;;-146.80;100.00;64830.25;5078810;27;45272;-58
2021/07/05 07:04:05;;;;;;;;;4.25;2.75;;;;;-146.80;100.00;64830.25;5078180;28;45197;-55
2021/07/05 07:06:30;;;;;;;;;6.00;5.50;;;;;-146.80;100.00;64830.25;5077862;27;45306;-60
2021/07/05 07:08:56;;;;;;;;;3.00;3.00;;;;;-146.80;100.00;64830.25;5078006;28;45351;-61
2021/07/05 07:11:22;;;;;;;;;4.75;4.75;;;;;-146.80;100.00;64830.25;5076987;28;45392;-61
2021/07/05 07:13:48;;;;;;;;;2.50;2.50;;;;;-146.80;100.00;64830.25;5078085;28;46526;-55
2021/07/05 07:16:15;;;;;;;;;3.25;3.25;;;;;-146.80;100.00;64830.25;5077950;27;45372;-60
2021/07/05 07:21:26;;;;;;;;;4.75;3.00;;;;;-146.80;100.00;64830.25;5078126;28;45380;-62
2021/07/05 07:23:53;;;;;;;;;4.00;4.00;;;;;-146.80;100.00;64830.25;5077672;27;45715;-59
2021/07/05 07:26:19;;;;;;;;;3.00;3.00;;;;;-146.80;100.00;64830.25;5077731;27;45400;-62
2021/07/05 07:28:50;;;;;;;;;3.75;3.00;;;;;-146.80;100.00;64830.25;5077723;27;45232;-62
2021/07/05 07:31:15;;;;;;;;;3.25;3.25;;;;;-146.80;100.00;64830.25;5077012;28;45352;-61
2021/07/05 07:33:40;;;;;;;;;5.00;5.00;;;;;-146.80;100.00;64830.25;5078102;27;45401;-59
2021/07/05 07:36:06;;;;;;;;;10.00;7.50;;;;;-146.80;100.00;64830.25;5077892;28;45374;-62
2021/07/05 07:38:37;;;;;;;;;6.00;6.00;;;;;-146.80;100.00;64830.25;5078061;28;45576;-65
2021/07/05 07:41:03;;;;;;;;;4.25;4.25;;;;;-146.80;100.00;64830.25;5078042;27;45222;-57
2021/07/05 07:43:28;;;;;;;;;8.25;6.75;;;;;-146.80;100.00;64830.25;5077513;27;45176;-63
2021/07/05 07:45:53;;;;;;;;;5.00;5.00;;;;;-146.80;100.00;64830.25;5077315;28;45403;-63
2021/07/05 07:48:19;;;;;;;;;3.50;3.50;;;;;-146.80;100.00;64830.25;5077928;28;45306;-62
2021/07/05 07:50:45;;;;;;;;;7.25;6.00;;;;;-146.80;100.00;64830.25;5078154;28;45899;-64
2021/07/05 07:53:10;;;;;;;;;4.25;4.25;;;;;-146.80;100.00;64830.25;5077874;28;45443;-60
2021/07/05 07:55:36;;;;;;;;;6.50;4.75;;;;;-146.80;100.00;64830.25;5076204;28;45388;-63
2021/07/05 07:58:01;;;;;;;;;4.75;4.00;;;;;-146.80;100.00;64830.25;5077464;28;45471;-62
2021/07/05 08:00:30;;;;;;;;;9.00;5.00;;;;;-146.80;100.00;64830.25;5076557;28;45545;-64
2021/07/05 08:02:55;;;;;;;;;3.00;3.00;;;;;-146.80;100.00;64830.25;5077311;27;46387;-61
2021/07/05 08:05:20;;;;;;;;;6.00;6.00;;;;;-146.80;100.00;64830.25;5077340;28;45372;-64
2021/07/05 08:07:46;;;;;;;;;6.00;6.00;;;;;-146.80;100.00;64830.25;5077561;28;45798;-62
2021/07/05 08:10:15;;;;;;;;;6.25;4.50;;;;;-146.80;100.00;64830.25;5076446;28;45570;-64
2021/07/05 08:12:42;;;;;;;;;6.25;5.50;;;;;-146.80;100.00;64830.25;5077337;28;45877;-62
2021/07/05 08:15:08;;;;;;;;;6.50;6.00;;;;;-146.80;100.00;64830.25;5077127;28;45405;-63
2021/07/05 08:17:34;;;;;;;;;6.50;6.50;;;;;-146.80;100.00;64830.25;5075653;28;45456;-61
2021/07/05 08:19:59;;;;;;;;;11.25;9.75;;;;;-146.80;100.00;64830.25;5075845;28;45600;-61
2021/07/05 08:22:25;;;;;;;;;9.00;8.75;;;;;-146.80;100.00;64830.25;5075581;28;47432;-64
2021/07/05 08:24:52;;;;;;;;;12.75;11.25;;;;;-146.80;100.00;64830.25;5076790;28;45515;-63
2021/07/05 08:27:18;;;;;;;;;6.75;6.00;;;;;-146.80;100.00;64830.25;5077178;28;45229;-60
2021/07/05 08:29:43;;;;;;;;;9.25;7.25;;;;;-146.80;100.00;64830.25;5077247;28;45612;-63
2021/07/05 08:32:09;;;;;;;;;10.00;7.25;;;;;-146.80;100.00;64830.25;5075502;28;45843;-61
2021/07/05 08:34:34;;;;;;;;;5.00;5.00;;;;;-146.80;100.00;64830.25;5075494;28;45563;-65
2021/07/05 08:37:00;;;;;;;;;5.75;5.75;;;;;-146.80;100.00;64830.25;5058662;28;45391;-63
2021/07/05 08:39:25;;;;;;;;;8.75;8.00;;;;;-146.80;100.00;64830.25;5075788;28;45282;-64
2021/07/05 08:41:51;;;;;;;;;10.25;9.00;;;;;-146.80;100.00;64830.25;5076399;28;46692;-60
2021/07/05 08:44:18;;;;;;;;;9.25;8.00;;;;;-146.80;100.00;64830.25;5077013;28;45377;-59
2021/07/05 08:46:44;;;;;;;;;6.25;6.25;;;;;-146.80;100.00;64830.25;5076659;28;45334;-62
2021/07/05 08:49:12;;;;;;;;;6.25;4.50;;;;;-146.80;100.00;64830.25;5075286;28;45610;-63
2021/07/05 08:51:38;;;;;;;;;5.25;5.25;;;;;-146.80;100.00;64830.25;5076297;27;46224;-64
2021/07/05 08:54:04;;;;;;;;;6.00;6.00;;;;;-146.80;100.00;64830.25;5076340;27;45266;-63
2021/07/05 08:56:29;;;;;;;;;31.00;27.25;;;;;-146.80;100.00;64830.25;5074830;28;45411;-63
2021/07/05 08:58:55;;;;;;;;;8.75;8.75;;;;;-146.80;100.00;64830.25;5076505;28;45635;-64
2021/07/05 09:01:20;;;;;;;;;8.00;8.00;;;;;-146.80;100.00;64830.25;5076211;28;46102;-62
2021/07/05 09:03:50;;;;;;;;;7.00;7.00;;;;;-146.80;100.00;64830.25;5076600;28;45325;-62
2021/07/05 09:06:20;;;;;;;;;10.75;8.00;;;;;-146.80;100.00;64830.25;5076713;27;45470;-62
2021/07/05 09:09:01;;;;;;;;;4.00;3.00;;;;;-146.80;100.00;64830.25;5076835;27;45459;-64
2021/07/05 09:11:43;;;;;;;;;6.25;3.00;;;;;-146.80;100.00;64830.25;5075728;27;46117;-65
2021/07/05 09:14:24;;;;;;;;;5.00;4.50;;;;;-146.80;100.00;64830.25;5076057;28;45538;-63
2021/07/05 09:16:51;;;;;;;;;3.00;3.00;;;;;-146.80;100.00;64830.25;5076708;28;45553;-62
2021/07/05 09:19:29;;;;;;;;;10.50;8.00;;;;;-146.80;100.00;64830.25;5076360;28;45302;-63
2021/07/05 09:22:01;;;;;;;;;9.25;7.50;;;;;-146.80;100.00;64830.25;5075689;28;46373;-66
2021/07/05 09:24:32;;;;;;;;;4.00;4.00;;;;;-146.80;100.00;64830.25;5076188;27;45412;-60
2021/07/05 09:27:12;;;;;;;;;6.25;5.00;;;;;-146.80;100.00;64830.25;5076135;28;45249;-62
2021/07/05 09:29:39;;;;;;;;;8.00;7.25;;;;;-146.80;100.00;64830.25;5076162;28;45373;-63
2021/07/05 09:32:07;;;;;;;;;4.00;4.00;;;;;-146.80;100.00;64830.25;5075821;28;45361;-63
2021/07/05 09:34:37;;;;;;;;;4.00;4.00;;;;;-146.80;100.00;64830.25;5075821;28;45433;-65
2021/07/05 09:37:22;;;;;;;;;3.00;3.00;;;;;-146.80;100.00;64830.25;5075795;28;45302;-65
2021/07/05 09:40:03;;;;;;;;;4.25;4.25;;;;;-146.80;100.00;64830.25;5076361;27;45326;-63
2021/07/05 09:42:29;;;;;;;;;6.50;6.00;;;;;-146.80;100.00;64830.25;5075313;27;45404;-59
2021/07/05 09:44:56;;;;;;;;;3.00;2.50;;;;;-146.80;100.00;64830.25;5075413;28;45486;-65
2021/07/05 09:47:25;;;;;;;;;3.00;3.00;;;;;-146.80;100.00;64830.25;5074188;27;45466;-65
2021/07/05 09:49:53;;;;;;;;;5.75;5.75;;;;;-146.80;100.00;64830.25;5076223;27;45758;-66
2021/07/05 09:52:25;;;;;;;;;4.00;4.00;;;;;-146.80;100.00;64830.25;5075913;28;45457;-63
2021/07/05 09:54:58;;;;;;;;;3.00;3.00;;;;;-146.80;100.00;64830.25;5074396;28;45334;-64
2021/07/05 09:57:30;;;;;;;;;3.75;3.75;;;;;-146.80;100.00;64830.25;5075708;28;45340;-65
2021/07/05 10:00:11;;;;;;;;;7.00;5.75;;;;;-146.80;100.00;64830.25;5075494;27;45547;-64
2021/07/05 10:02:37;;;;;;;;;8.00;6.00;;;;;-146.80;100.00;64830.25;5075478;27;45428;-62
2021/07/05 10:05:12;;;;;;;;;2.75;2.75;;;;;-146.80;100.00;64830.25;5075392;28;45200;-67
2021/07/05 10:07:38;;;;;;;;;3.00;3.00;;;;;-146.80;100.00;64830.25;5075539;28;45408;-64
2021/07/05 10:10:10;;;;;;;;;5.25;4.25;;;;;-146.80;100.00;64830.25;5075586;27;45337;-66
2021/07/05 10:12:36;;;;;;;;;7.00;5.25;;;;;-146.80;100.00;64830.25;5073620;28;47127;-68
2021/07/05 10:15:09;;;;;;;;;4.00;4.00;;;;;-146.80;100.00;64830.25;5075141;28;45659;-67
2021/07/05 10:17:42;;;;;;;;;7.00;7.00;;;;;-146.80;100.00;64830.25;5073791;28;45283;-68
2021/07/05 10:20:11;;;;;;;;;6.50;3.75;;;;;-146.80;100.00;64830.25;5075133;27;45352;-64
2021/07/05 10:22:46;;;;;;;;;6.25;5.00;;;;;-146.80;100.00;64830.25;5075470;27;45413;-64
2021/07/05 10:25:12;;;;;;;;;7.00;7.00;;;;;-146.80;100.00;64830.25;5078553;28;45435;-67
2021/07/05 10:27:38;;;;;;;;;3.50;3.50;;;;;-146.80;100.00;64830.25;5078772;28;45896;-63
2021/07/05 10:30:07;;;;;;;;;3.00;2.25;;;;;-146.80;100.00;64830.25;5077521;28;45445;-63
2021/07/05 10:32:33;;;;;;;;;5.00;4.25;;;;;-146.80;100.00;64830.25;5060404;28;47382;-65
2021/07/05 10:34:59;;;;;;;;;3.50;2.00;;;;;-146.80;100.00;64830.25;5078427;28;45378;-66
2021/07/05 10:37:34;;;;;;;;;3.00;3.00;;;;;-146.80;100.00;64830.25;5078439;28;45188;-67
2021/07/05 10:40:01;;;;;;;;;3.50;2.00;;;;;-146.80;100.00;64830.25;5078730;28;45448;-67
2021/07/05 10:42:29;;;;;;;;;3.50;3.50;;;;;-146.80;100.00;64830.25;5059609;28;46307;-66
2021/07/05 10:44:54;;;;;;;;;4.00;4.00;;;;;-146.80;100.00;64830.25;5078173;28;45293;-65
2021/07/05 10:47:39;;;;;;;;;3.75;3.75;;;;;-146.80;100.00;64830.25;5077074;28;45483;-65
2021/07/05 10:50:06;;;;;;;;;5.25;4.00;;;;;-146.80;100.00;64830.25;5076836;28;45619;-67
2021/07/05 10:52:48;;;;;;;;;3.00;3.00;;;;;-146.80;100.00;64830.25;5077652;28;45501;-64
2021/07/05 10:55:34;;;;;;;;;3.00;3.00;;;;;-146.80;100.00;64830.25;5078219;28;45339;-63
2021/07/05 10:57:59;;;;;;;;;5.00;3.00;;;;;-146.80;100.00;64830.25;5078093;27;46010;-64
2021/07/05 11:00:42;;;;;;;;;5.00;3.50;;;;;-146.80;100.00;64830.25;5078315;28;45473;-62
2021/07/05 11:03:08;;;;;;;;;2.50;2.50;;;;;-146.80;100.00;64830.25;5077831;28;46175;-66
2021/07/05 11:05:42;;;;;;;;;5.00;3.00;;;;;-146.80;100.00;64830.25;5077588;28;45460;-63
2021/07/05 11:08:22;;;;;;;;;10.50;7.75;;;;;-146.80;100.00;64830.25;5076582;28;45322;-67
2021/07/05 11:10:53;;;;;;;;;4.25;4.25;;;;;-146.80;100.00;64830.25;5078099;27;45604;-65
2021/07/05 11:13:20;;;;;;;;;3.25;2.75;;;;;-146.80;100.00;64830.25;5077555;27;45311;-67